createdAt,value
2023-02-21T00:01:06.637Z,100118.69
2023-02-21T00:04:08.198Z,100171.72
2023-02-21T00:07:09.031Z,100170.72
2023-02-21T00:10:11.566Z,100166.09
2023-02-21T00:13:13.922Z,100150.81
2023-02-21T00:16:15.369Z,100153.09
2023-02-21T00:19:17.172Z,100151.22
2023-02-21T00:22:18.713Z,100159.03
2023-02-21T00:25:21.200Z,100125.38
2023-02-21T00:28:22.607Z,100152.75
2023-02-21T00:31:24.711Z,100141.16
2023-02-21T00:34:26.001Z,100139.56
2023-02-21T00:37:27.228Z,100142.06
2023-02-21T00:40:32.946Z,100138.34
2023-02-21T00:43:36.650Z,100128.63
2023-02-21T00:46:38.753Z,100127.34
2023-02-21T00:49:40.497Z,100122.88
2023-02-21T00:52:42.176Z,100119.94
2023-02-21T00:55:45.261Z,100115.38
2023-02-21T00:58:46.597Z,100106.59
2023-02-21T01:01:48.154Z,100115.53
2023-02-21T01:04:49.172Z,100111.72
2023-02-21T01:07:50.601Z,100105.72
2023-02-21T01:10:53.357Z,100089.81
2023-02-21T01:13:55.331Z,100090.50
2023-02-21T01:16:59.422Z,100092.38
2023-02-21T01:20:09.520Z,100095.16
2023-02-21T01:23:11.731Z,100100.66
2023-02-21T01:26:14.454Z,100083.66
2023-02-21T01:29:15.617Z,100068.06
2023-02-21T01:32:16.967Z,100086.84
2023-02-21T01:35:18.227Z,100068.03
2023-02-21T01:38:19.833Z,100060.84
2023-02-21T01:41:22.643Z,100066.09
2023-02-21T01:44:26.943Z,100072.34
2023-02-21T01:47:29.995Z,100054.91
2023-02-21T01:50:38.513Z,100055.13
2023-02-21T01:53:42.920Z,100062.75
2023-02-21T01:56:48.262Z,100045.97
2023-02-21T01:59:50.542Z,100055.44
2023-02-21T02:02:57.113Z,100064.34
2023-02-21T02:06:00.273Z,100043.31
2023-02-21T02:09:02.261Z,100014.84
2023-02-21T02:12:25.740Z,100014.53
2023-02-21T02:15:23.056Z,99999.19
2023-02-21T02:18:45.983Z,100013.41
2023-02-21T02:22:08.349Z,100009.72
2023-02-21T02:25:08.638Z,100009.84
2023-02-21T02:28:14.996Z,100014.59
2023-02-21T02:31:29.956Z,100001.94
2023-02-21T02:34:38.933Z,100012.31
2023-02-21T02:37:33.025Z,99966.00
2023-02-21T02:40:26.916Z,99994.72
2023-02-21T02:43:17.812Z,100007.34
2023-02-21T02:46:09.660Z,100003.09
2023-02-21T02:48:59.400Z,99999.28
2023-02-21T02:51:45.254Z,99958.41
2023-02-21T02:54:29.178Z,100012.44
2023-02-21T02:57:14.583Z,100030.88
2023-02-21T02:59:58.994Z,100020.19
2023-02-21T03:02:58.791Z,99963.97
2023-02-21T03:05:56.141Z,100011.94
2023-02-21T03:08:50.432Z,99988.94
2023-02-21T03:11:35.045Z,100014.03
2023-02-21T03:14:25.135Z,100009.03
2023-02-21T03:17:13.133Z,100008.00
2023-02-21T03:20:00.699Z,99996.97
2023-02-21T03:22:47.156Z,99996.00
2023-02-21T03:25:35.283Z,100000.78
2023-02-21T03:28:22.345Z,99994.63
2023-02-21T03:31:09.950Z,100000.13
2023-02-21T03:33:54.781Z,99995.19
2023-02-21T03:36:39.859Z,99999.09
2023-02-21T03:39:23.929Z,100006.53
2023-02-21T03:42:09.320Z,99994.78
2023-02-21T03:44:54.467Z,100016.84
2023-02-21T03:47:40.581Z,100017.34
2023-02-21T03:50:24.421Z,100014.59
2023-02-21T03:53:09.678Z,99975.84
2023-02-21T03:55:55.198Z,100009.72
2023-02-21T03:58:49.986Z,100011.69
2023-02-21T04:01:34.369Z,100015.47
2023-02-21T04:04:18.605Z,100020.34
2023-02-21T04:07:06.713Z,100012.06
2023-02-21T04:09:51.204Z,100012.75
2023-02-21T04:12:48.124Z,100001.31
2023-02-21T04:15:34.792Z,99996.50
2023-02-21T04:18:19.087Z,99990.63
2023-02-21T04:21:05.964Z,99951.66
2023-02-21T04:23:50.412Z,99993.53
2023-02-21T04:26:35.228Z,99963.44
2023-02-21T04:29:20.367Z,99977.19
2023-02-21T04:32:06.233Z,99980.72
2023-02-21T04:34:51.912Z,99985.06
2023-02-21T04:37:35.669Z,99971.06
2023-02-21T04:40:20.214Z,99956.78
2023-02-21T04:43:04.289Z,99973.25
2023-02-21T04:45:48.705Z,99966.44
2023-02-21T04:48:36.104Z,99958.53
2023-02-21T04:51:23.341Z,99959.75
2023-02-21T04:54:07.918Z,99972.78
2023-02-21T04:56:51.791Z,99966.09
2023-02-21T04:59:35.646Z,99978.53
2023-02-21T05:02:19.506Z,99976.22
2023-02-21T05:05:04.920Z,99933.25
2023-02-21T05:07:48.900Z,99974.75
2023-02-21T05:10:44.959Z,99943.75
2023-02-21T05:13:29.345Z,99981.16
2023-02-21T05:16:13.887Z,99961.69
2023-02-21T05:18:57.974Z,99962.16
2023-02-21T05:21:43.291Z,99971.31
2023-02-21T05:24:28.616Z,99947.91
2023-02-21T05:27:15.852Z,99928.59
2023-02-21T05:29:59.963Z,99957.63
2023-02-21T05:32:44.491Z,99956.63
2023-02-21T05:35:28.471Z,99952.16
2023-02-21T05:38:14.563Z,99953.22
2023-02-21T05:40:58.667Z,99948.72
2023-02-21T05:43:44.929Z,99955.81
2023-02-21T05:46:31.086Z,99911.28
2023-02-21T05:49:15.112Z,99951.94
2023-02-21T05:51:58.886Z,99963.59
2023-02-21T05:54:44.156Z,99966.25
2023-02-21T05:57:27.872Z,99961.66
2023-02-21T06:00:17.075Z,99975.38
2023-02-21T06:03:03.721Z,99966.63
2023-02-21T06:05:48.546Z,99959.66
2023-02-21T06:08:32.466Z,99970.13
2023-02-21T06:11:23.573Z,99961.81
2023-02-21T06:14:09.709Z,99980.25
2023-02-21T06:16:53.478Z,99969.75
2023-02-21T06:19:37.229Z,99972.91
2023-02-21T06:22:21.110Z,99969.91
2023-02-21T06:25:05.012Z,99964.72
2023-02-21T06:27:50.568Z,99971.66
2023-02-21T06:30:34.421Z,99975.25
2023-02-21T06:33:18.531Z,99983.41
2023-02-21T06:36:05.814Z,99978.41
2023-02-21T06:38:51.520Z,99976.25
2023-02-21T06:41:35.340Z,99975.38
2023-02-21T06:44:20.777Z,99969.84
2023-02-21T06:47:04.725Z,99975.28
2023-02-21T06:49:48.610Z,99971.06
2023-02-21T06:52:32.694Z,99977.34
2023-02-21T06:55:23.081Z,99966.09
2023-02-21T06:58:09.058Z,99963.13
2023-02-21T07:00:54.191Z,99957.56
2023-02-21T07:03:43.277Z,99962.06
2023-02-21T07:06:29.857Z,99960.56
2023-02-21T07:09:14.462Z,99960.50
2023-02-21T07:11:58.437Z,99963.88
2023-02-21T07:14:42.305Z,99967.66
2023-02-21T07:17:27.780Z,99962.59
2023-02-21T07:20:12.380Z,99939.69
2023-02-21T07:22:56.252Z,99941.56
2023-02-21T07:25:39.951Z,99937.72
2023-02-21T07:28:23.702Z,99906.97
2023-02-21T07:31:07.930Z,99905.22
2023-02-21T07:33:53.186Z,99946.03
2023-02-21T07:36:40.139Z,99944.66
2023-02-21T07:39:24.185Z,99953.59
2023-02-21T07:42:09.112Z,99943.56
2023-02-21T07:44:56.980Z,99938.59
2023-02-21T07:47:40.892Z,99932.75
2023-02-21T07:50:26.086Z,99889.53
2023-02-21T07:53:11.257Z,99921.63
2023-02-21T07:55:55.097Z,99928.34
2023-02-21T07:58:38.956Z,99922.47
2023-02-21T08:01:24.850Z,99906.03
2023-02-21T08:04:08.948Z,99884.50
2023-02-21T08:06:59.338Z,99921.72
2023-02-21T08:09:43.252Z,99887.63
2023-02-21T08:12:27.079Z,99919.97
2023-02-21T08:15:11.066Z,99901.38
2023-02-21T08:17:55.047Z,99921.69
2023-02-21T08:20:38.926Z,99908.75
2023-02-21T08:23:24.816Z,99905.94
2023-02-21T08:26:08.665Z,99898.06
2023-02-21T08:28:52.545Z,99894.59
2023-02-21T08:31:36.795Z,99882.16
2023-02-21T08:34:20.602Z,99880.47
2023-02-21T08:37:06.726Z,99848.97
2023-02-21T08:39:53.970Z,99864.38
2023-02-21T08:42:37.828Z,99861.69
2023-02-21T08:45:24.148Z,99841.53
2023-02-21T08:48:08.083Z,99845.84
2023-02-21T08:50:52.351Z,99854.25
2023-02-21T08:53:36.205Z,99826.19
2023-02-21T08:56:21.835Z,99841.09
2023-02-21T08:59:05.869Z,99846.69
2023-02-21T09:01:49.778Z,99843.44
2023-02-21T09:04:33.653Z,99846.41
2023-02-21T09:07:19.664Z,99847.63
2023-02-21T09:10:03.751Z,99823.53
2023-02-21T09:12:49.098Z,99826.34
2023-02-21T09:15:33.153Z,99827.53
2023-02-21T09:18:17.059Z,99824.50
2023-02-21T09:21:01.012Z,99808.88
2023-02-21T09:23:44.900Z,99789.38
2023-02-21T09:26:31.989Z,99814.09
2023-02-21T09:29:17.137Z,99803.41
2023-02-21T09:32:01.758Z,99798.72
2023-02-21T09:34:45.766Z,99806.50
2023-02-21T09:37:30.132Z,99801.88
2023-02-21T09:40:21.953Z,99815.56
2023-02-21T09:43:09.977Z,99806.13
2023-02-21T09:46:00.138Z,99806.84
2023-02-21T09:48:45.333Z,99785.28
2023-02-21T09:51:30.104Z,99786.38
2023-02-21T09:54:23.207Z,99792.31
2023-02-21T09:57:12.086Z,99777.34
2023-02-21T09:59:56.022Z,99772.00
2023-02-21T10:02:53.934Z,99763.63
2023-02-21T10:05:45.756Z,99758.81
2023-02-21T10:08:41.071Z,99754.81
2023-02-21T10:11:35.474Z,99700.63
2023-02-21T10:14:28.579Z,99753.19
2023-02-21T10:17:20.408Z,99742.88
2023-02-21T10:20:13.799Z,99743.44
2023-02-21T10:22:57.967Z,99735.91
2023-02-21T10:25:44.971Z,99719.81
2023-02-21T10:28:28.732Z,99717.16
2023-02-21T10:31:17.517Z,99703.59
2023-02-21T10:34:01.649Z,99696.16
2023-02-21T10:36:47.051Z,99697.03
2023-02-21T10:39:37.989Z,99658.44
2023-02-21T10:42:30.060Z,99662.47
2023-02-21T10:45:17.489Z,99655.66
2023-02-21T10:48:05.386Z,99643.31
2023-02-21T10:51:05.466Z,99628.97
2023-02-21T10:53:52.833Z,99634.69
2023-02-21T10:56:39.630Z,99620.34
2023-02-21T10:59:27.451Z,99618.09
2023-02-21T11:02:31.981Z,99597.00
2023-02-21T11:05:18.421Z,99616.25
2023-02-21T11:08:07.208Z,99606.09
2023-02-21T11:10:56.689Z,99611.72
2023-02-21T11:13:40.605Z,99606.31
2023-02-21T11:16:24.782Z,99594.66
2023-02-21T11:19:09.197Z,99614.03
2023-02-21T11:21:57.275Z,99623.78
2023-02-21T11:24:59.012Z,99618.06
2023-02-21T11:27:46.470Z,99606.28
2023-02-21T11:30:33.221Z,99617.28
2023-02-21T11:33:21.460Z,99626.34
2023-02-21T11:36:13.512Z,99624.56
2023-02-21T11:39:07.384Z,99611.78
2023-02-21T11:41:52.434Z,99600.88
2023-02-21T11:44:39.278Z,99595.34
2023-02-21T11:47:27.831Z,99589.38
2023-02-21T11:50:16.861Z,99604.78
2023-02-21T11:53:07.622Z,99561.75
2023-02-21T11:55:59.463Z,99583.66
2023-02-21T11:58:50.398Z,99561.03
2023-02-21T12:01:40.728Z,99572.16
2023-02-21T12:04:53.564Z,99566.78
2023-02-21T12:07:47.151Z,99544.88
2023-02-21T12:10:45.143Z,99568.75
2023-02-21T12:13:37.533Z,99552.03
2023-02-21T12:16:31.559Z,99550.75
2023-02-21T12:19:37.171Z,99550.63
2023-02-21T12:22:35.441Z,99524.06
2023-02-21T12:25:24.903Z,99554.56
2023-02-21T12:28:20.908Z,99547.84
2023-02-21T12:31:14.351Z,99537.59
2023-02-21T12:34:11.400Z,99560.91
2023-02-21T12:37:21.735Z,99546.84
2023-02-21T12:40:17.370Z,99537.03
2023-02-21T12:43:18.068Z,99539.53
2023-02-21T12:46:12.862Z,99533.06
2023-02-21T12:49:03.894Z,99563.66
2023-02-21T12:51:51.872Z,99539.94
2023-02-21T12:54:44.832Z,99572.84
2023-02-21T12:57:35.569Z,99589.25
2023-02-21T13:00:23.129Z,99563.53
2023-02-21T13:03:19.148Z,99558.78
2023-02-21T13:06:08.481Z,99546.78
2023-02-21T13:09:09.198Z,99562.53
2023-02-21T13:12:01.234Z,99553.53
2023-02-21T13:14:50.017Z,99574.03
2023-02-21T13:17:34.007Z,99567.06
2023-02-21T13:20:22.676Z,99548.78
2023-02-21T13:23:43.762Z,99557.94
2023-02-21T13:26:39.073Z,99551.59
2023-02-21T13:29:28.070Z,99536.44
2023-02-21T13:32:17.336Z,99546.84
2023-02-21T13:35:06.243Z,99519.44
2023-02-21T13:37:53.443Z,99526.16
2023-02-21T13:40:39.795Z,99521.56
2023-02-21T13:43:26.717Z,99498.63
2023-02-21T13:47:05.484Z,99507.94
2023-02-21T13:49:52.214Z,99524.19
2023-02-21T13:53:16.625Z,99543.56
2023-02-21T13:56:21.599Z,99514.34
2023-02-21T13:59:33.735Z,99501.13
2023-02-21T14:02:30.866Z,99514.97
2023-02-21T14:05:14.733Z,99518.09
2023-02-21T14:08:02.750Z,99523.66
2023-02-21T14:10:49.264Z,99518.06
2023-02-21T14:13:36.573Z,99529.53
2023-02-21T14:16:24.453Z,99519.66
2023-02-21T14:19:12.442Z,99510.19
2023-02-21T14:22:04.081Z,99532.09
2023-02-21T14:24:50.287Z,99536.06
2023-02-21T14:27:40.804Z,99542.69
2023-02-21T14:30:35.658Z,99538.47
2023-02-21T14:33:26.696Z,99540.03
2023-02-21T14:36:15.158Z,99553.38
2023-02-21T14:38:59.286Z,99530.53
2023-02-21T14:41:58.736Z,99539.78
2023-02-21T14:44:57.400Z,99558.75
2023-02-21T14:48:01.003Z,99548.09
2023-02-21T14:51:04.909Z,99553.19
2023-02-21T14:54:21.521Z,99511.78
2023-02-21T14:57:30.179Z,99552.47
2023-02-21T15:00:24.209Z,99544.56
2023-02-21T15:03:14.265Z,99560.06
2023-02-21T15:06:04.738Z,99538.97
2023-02-21T15:08:50.734Z,99562.72
2023-02-21T15:11:39.492Z,99571.00
2023-02-21T15:14:26.435Z,99570.44
2023-02-21T15:17:18.202Z,99575.38
2023-02-21T15:20:07.110Z,99582.81
2023-02-21T15:22:57.387Z,99588.84
2023-02-21T15:25:41.349Z,99593.59
2023-02-21T15:28:28.896Z,99592.88
2023-02-21T15:31:14.766Z,99583.84
2023-02-21T15:33:58.957Z,99457.19
2023-02-21T15:36:43.068Z,99591.91
2023-02-21T15:39:32.561Z,99569.94
2023-02-21T15:42:18.140Z,99585.84
2023-02-21T15:45:07.216Z,99582.03
2023-02-21T15:47:51.973Z,99546.13
2023-02-21T15:50:38.813Z,99532.16
2023-02-21T15:53:24.954Z,99534.44
2023-02-21T15:56:21.680Z,99519.53
2023-02-21T15:59:14.988Z,99532.72
2023-02-21T16:02:15.367Z,99545.84
2023-02-21T16:04:59.222Z,99567.00
2023-02-21T16:07:44.393Z,99554.09
2023-02-21T16:10:29.215Z,99602.72
2023-02-21T16:13:14.803Z,99617.38
2023-02-21T16:16:01.687Z,99632.63
2023-02-21T16:18:47.022Z,99633.44
2023-02-21T16:21:31.445Z,99641.00
2023-02-21T16:24:30.740Z,99649.25
2023-02-21T16:27:17.846Z,99656.16
2023-02-21T16:30:04.092Z,99662.25
2023-02-21T16:32:50.434Z,99627.97
2023-02-21T16:35:35.856Z,99648.66
2023-02-21T16:38:21.460Z,99648.63
2023-02-21T16:41:05.474Z,99656.03
2023-02-21T16:43:49.347Z,99621.28
2023-02-21T16:46:33.194Z,99649.28
2023-02-21T16:49:16.987Z,99647.69
2023-02-21T16:52:02.138Z,99647.56
2023-02-21T16:54:46.841Z,99648.91
2023-02-21T16:57:30.902Z,99647.56
2023-02-21T17:00:15.908Z,99654.81
2023-02-21T17:02:59.823Z,99644.44
2023-02-21T17:05:43.709Z,99639.56
2023-02-21T17:08:28.920Z,99630.75
2023-02-21T17:11:13.094Z,99619.53
2023-02-21T17:13:56.984Z,99465.81
2023-02-21T17:16:44.931Z,99631.97
2023-02-21T17:19:28.690Z,99644.38
2023-02-21T17:22:12.482Z,99662.19
2023-02-21T17:24:57.764Z,99643.75
2023-02-21T17:27:41.678Z,99605.03
2023-02-21T17:30:26.157Z,99642.38
2023-02-21T17:33:11.126Z,99638.38
2023-02-21T17:35:54.949Z,99633.66
2023-02-21T17:38:38.713Z,99622.91
2023-02-21T17:41:24.204Z,99617.59
2023-02-21T17:44:08.226Z,99611.06
2023-02-21T17:46:53.684Z,99611.03
2023-02-21T17:49:37.538Z,99627.91
2023-02-21T17:52:22.190Z,99617.31
2023-02-21T17:55:08.145Z,99611.66
2023-02-21T17:57:53.992Z,99642.50
2023-02-21T18:00:39.440Z,99644.16
2023-02-21T18:03:23.670Z,99642.84
2023-02-21T18:06:08.132Z,99651.66
2023-02-21T18:08:51.797Z,99649.88
2023-02-21T18:11:37.017Z,99656.91
2023-02-21T18:14:25.522Z,99671.44
2023-02-21T18:17:09.394Z,99683.06
2023-02-21T18:19:53.256Z,99672.19
2023-02-21T18:22:37.305Z,99631.81
2023-02-21T18:25:24.232Z,99679.91
2023-02-21T18:28:08.693Z,99679.44
2023-02-21T18:30:54.685Z,99678.22
2023-02-21T18:33:38.629Z,99681.75
2023-02-21T18:36:22.497Z,99678.72
2023-02-21T18:39:07.144Z,99678.13
2023-02-21T18:41:51.582Z,99657.94
2023-02-21T18:44:35.422Z,99685.97
2023-02-21T18:47:21.117Z,99681.78
2023-02-21T18:50:06.022Z,99679.50
2023-02-21T18:52:49.834Z,99697.16
2023-02-21T18:55:33.948Z,99699.78
2023-02-21T18:58:17.895Z,99713.22
2023-02-21T19:01:01.829Z,99711.16
2023-02-21T19:03:47.329Z,99712.59
2023-02-21T19:06:33.195Z,99689.34
2023-02-21T19:09:16.991Z,99704.19
2023-02-21T19:12:00.849Z,99695.09
2023-02-21T19:14:45.088Z,99699.44
2023-02-21T19:17:29.482Z,99710.13
2023-02-21T19:20:19.387Z,99661.94
2023-02-21T19:23:03.490Z,99702.81
2023-02-21T19:25:47.510Z,99685.03
2023-02-21T19:28:31.831Z,99703.31
2023-02-21T19:31:19.626Z,99681.91
2023-02-21T19:34:03.636Z,99694.41
2023-02-21T19:36:48.897Z,99718.13
2023-02-21T19:39:32.760Z,99690.66
2023-02-21T19:42:16.544Z,99714.81
2023-02-21T19:45:00.412Z,99726.13
2023-02-21T19:47:44.494Z,99724.13
2023-02-21T19:50:30.900Z,99722.00
2023-02-21T19:53:16.342Z,99744.91
2023-02-21T19:56:00.193Z,99727.13
2023-02-21T19:58:45.443Z,99755.53
2023-02-21T20:01:30.341Z,99739.66
2023-02-21T20:04:15.030Z,99738.34
2023-02-21T20:07:00.302Z,99612.69
2023-02-21T20:09:48.021Z,99740.97
2023-02-21T20:12:32.015Z,99742.25
2023-02-21T20:15:15.877Z,99725.63
2023-02-21T20:17:59.794Z,99744.81
2023-02-21T20:20:43.878Z,99743.19
2023-02-21T20:23:27.809Z,99697.97
2023-02-21T20:26:14.179Z,99738.50
2023-02-21T20:28:58.316Z,99744.13
2023-02-21T20:31:42.425Z,99747.19
2023-02-21T20:34:26.500Z,99712.19
2023-02-21T20:37:12.011Z,99738.50
2023-02-21T20:39:55.777Z,99749.03
2023-02-21T20:42:41.024Z,99767.03
2023-02-21T20:45:25.032Z,99759.59
2023-02-21T20:48:11.038Z,99760.44
2023-02-21T20:50:54.987Z,99757.59
2023-02-21T20:53:39.030Z,99754.44
2023-02-21T20:56:24.410Z,99748.63
2023-02-21T20:59:15.962Z,99756.09
2023-02-21T21:02:01.134Z,99774.13
2023-02-21T21:04:47.849Z,99773.69
2023-02-21T21:07:31.625Z,99783.84
2023-02-21T21:10:19.228Z,99788.88
2023-02-21T21:13:03.081Z,99795.59
2023-02-21T21:15:48.814Z,99790.53
2023-02-21T21:18:32.755Z,99798.59
2023-02-21T21:21:16.874Z,99815.41
2023-02-21T21:24:01.438Z,99821.31
2023-02-21T21:26:51.072Z,99831.63
2023-02-21T21:29:36.535Z,99834.97
2023-02-21T21:32:24.721Z,99847.03
2023-02-21T21:35:08.766Z,99847.56
2023-02-21T21:37:52.562Z,99863.50
2023-02-21T21:40:36.303Z,99823.19
2023-02-21T21:43:20.630Z,99838.28
2023-02-21T21:46:04.353Z,99855.84
2023-02-21T21:48:49.803Z,99827.28
2023-02-21T21:51:34.090Z,99864.09
2023-02-21T21:54:21.715Z,99860.88
2023-02-21T21:57:06.601Z,99862.78
2023-02-21T21:59:51.180Z,99869.00
2023-02-21T22:02:34.920Z,99869.72
2023-02-21T22:05:21.184Z,99871.97
2023-02-21T22:08:05.036Z,99862.44
2023-02-21T22:10:48.796Z,99892.22
2023-02-21T22:13:33.960Z,99886.06
2023-02-21T22:16:18.198Z,99895.63
2023-02-21T22:19:02.074Z,99883.41
2023-02-21T22:21:47.669Z,99850.50
2023-02-21T22:24:33.717Z,99886.47
2023-02-21T22:27:17.511Z,99889.66
2023-02-21T22:30:03.317Z,99873.59
2023-02-21T22:32:48.486Z,99892.69
2023-02-21T22:35:32.440Z,99902.75
2023-02-21T22:38:17.932Z,99906.59
2023-02-21T22:41:01.825Z,99906.47
2023-02-21T22:43:49.236Z,99892.66
2023-02-21T22:46:41.670Z,99899.47
2023-02-21T22:49:25.927Z,99896.38
2023-02-21T22:52:10.821Z,99895.91
2023-02-21T22:54:56.065Z,99891.94
2023-02-21T22:57:39.777Z,99889.84
2023-02-21T23:00:26.115Z,99886.44
2023-02-21T23:03:13.890Z,99896.94
2023-02-21T23:06:02.066Z,99902.06
2023-02-21T23:08:49.029Z,99875.91
2023-02-21T23:11:34.487Z,99874.38
2023-02-21T23:14:19.255Z,99907.16
2023-02-21T23:17:03.168Z,99888.94
2023-02-21T23:19:46.884Z,99905.28
2023-02-21T23:22:31.615Z,99909.06
2023-02-21T23:25:25.711Z,99916.00
2023-02-21T23:28:12.939Z,99909.56
2023-02-21T23:30:58.410Z,99885.94
2023-02-21T23:33:42.538Z,99891.22
2023-02-21T23:36:27.877Z,99903.97
2023-02-21T23:39:12.631Z,99904.84
2023-02-21T23:41:58.734Z,99876.88
2023-02-21T23:44:45.234Z,99894.41
2023-02-21T23:47:31.846Z,99897.59
2023-02-21T23:50:18.281Z,99901.09
2023-02-21T23:53:02.486Z,99889.31
2023-02-21T23:55:47.400Z,99888.69
2023-02-21T23:58:32.602Z,99888.44
